Holliday, Missouri
Current Conditions -  °F | °C
As of 1:15 AM on Thursday 27 Nov 2014 (Local Time) from KHAE Reporting Station
Haze Haze  
Wind Chill: 22°   Ceiling: 1000
Heat Index: 30°   Visibility: 5mi
Dew Point: 27°   Wind: 9mph
Humidity: 86%   Direction: 330°NNW
Pressure: 30.35"   Gusts: NA
Location:  39.49°N, 92.13°W
Report Text: KHAE 270715Z AUTO 33008KT 5SM BR BKN010 OVC015 M01/M03 A3035 RMK AO2
Loading
Personal Weather Stations






























Interactive Weather Map New forecast layout! Learn more

10-Day Weather Forecast

Advertisements
Track Severe Weather on mobile